Time;durP1;ratioP1;P1;durP2;ratioP2;P2;SDS_P1;SDS_P2;PMS_P1;PMS_P2;Temp;Humidity;BMP_temperature;BMP_pressure;BME280_temperature;BME280_humidity;BME280_pressure;Samples;Min_cycle;Max_cycle;Signal;HPM_P1;HPM_P2
2023/04/13 00:00:43;;;;;;;17.05;9.55;;;8.60;99.90;;;;;;2621564;46;20904;31
2023/04/13 00:03:20;;;;;;;15.85;9.43;;;8.50;99.90;;;;;;2603545;54;20097;31
2023/04/13 00:05:56;;;;;;;13.07;8.88;;;8.60;99.90;;;;;;2603653;54;20030;31
2023/04/13 00:08:35;;;;;;;16.23;9.95;;;8.50;99.90;;;;;;2603673;54;20774;31
2023/04/13 00:11:12;;;;;;;19.88;10.25;;;8.50;99.90;;;;;;2603614;54;20193;31
2023/04/13 00:13:49;;;;;;;14.25;9.15;;;8.50;99.90;;;;;;2621890;46;19942;31
2023/04/13 00:16:28;;;;;;;16.33;8.80;;;8.50;99.90;;;;;;2603452;54;20873;31
2023/04/13 00:19:06;;;;;;;16.92;9.50;;;8.50;99.90;;;;;;2603777;54;21661;31
2023/04/13 00:21:42;;;;;;;15.80;9.50;;;8.50;99.90;;;;;;2621950;46;20034;31
2023/04/13 00:24:20;;;;;;;17.85;9.10;;;8.50;99.90;;;;;;2603539;54;21700;31
2023/04/13 00:26:56;;;;;;;14.50;9.70;;;8.50;99.90;;;;;;2603520;54;20098;31
2023/04/13 00:29:32;;;;;;;15.65;9.20;;;8.50;99.90;;;;;;2621951;46;19931;31
2023/04/13 00:32:12;;;;;;;16.00;10.47;;;8.50;99.90;;;;;;2603490;54;20057;31
2023/04/13 00:34:46;;;;;;;17.88;10.05;;;8.50;99.90;;;;;;2603496;54;21362;31
2023/04/13 00:37:22;;;;;;;16.67;8.93;;;8.40;99.90;;;;;;2603824;54;20033;31
2023/04/13 00:40:04;;;;;;;18.13;10.07;;;8.40;99.90;;;;;;2603685;54;20034;31
2023/04/13 00:42:40;;;;;;;14.90;9.60;;;8.40;99.90;;;;;;2602815;54;20038;31
2023/04/13 00:45:15;;;;;;;20.33;11.65;;;8.40;99.90;;;;;;2603701;54;20026;31
2023/04/13 00:47:52;;;;;;;18.73;9.60;;;8.40;99.90;;;;;;2602781;54;20026;31
2023/04/13 00:50:29;;;;;;;19.75;10.20;;;8.40;99.90;;;;;;2603728;54;20028;31
2023/04/13 00:53:04;;;;;;;15.10;9.77;;;8.40;99.90;;;;;;2603642;54;20120;31
2023/04/13 00:55:47;;;;;;;18.50;10.88;;;8.30;99.90;;;;;;2621870;46;20031;31
2023/04/13 00:58:25;;;;;;;19.63;10.70;;;8.30;99.90;;;;;;2603613;54;20774;31
2023/04/13 01:01:01;;;;;;;19.65;11.82;;;8.30;99.90;;;;;;2603456;54;20835;31
2023/04/13 01:03:36;;;;;;;16.48;9.77;;;8.30;99.90;;;;;;2603708;54;20817;31
2023/04/13 01:06:16;;;;;;;16.00;9.60;;;8.30;99.90;;;;;;2603562;54;20026;31
2023/04/13 01:08:55;;;;;;;14.87;9.97;;;8.40;99.90;;;;;;2621485;46;20029;31
2023/04/13 01:11:35;;;;;;;15.27;10.10;;;8.30;99.90;;;;;;2603295;54;21019;31
2023/04/13 01:14:13;;;;;;;13.73;10.10;;;8.30;99.90;;;;;;2602461;54;20026;31
2023/04/13 01:16:52;;;;;;;16.42;9.77;;;8.20;99.90;;;;;;2603540;54;20031;31
2023/04/13 01:19:34;;;;;;;18.90;10.70;;;8.30;99.90;;;;;;2603417;54;20108;31
2023/04/13 01:22:13;;;;;;;18.25;10.77;;;8.20;99.90;;;;;;2603461;54;20795;31
2023/04/13 01:24:56;;;;;;;15.65;9.50;;;8.20;99.90;;;;;;2603415;54;20865;31
2023/04/13 01:27:41;;;;;;;17.35;9.60;;;8.20;99.90;;;;;;2603502;54;20897;31
2023/04/13 01:30:18;;;;;;;16.35;9.70;;;8.20;99.90;;;;;;2603527;54;20085;31
2023/04/13 01:32:53;;;;;;;16.05;9.70;;;8.10;99.90;;;;;;2603380;54;20886;31
2023/04/13 01:35:30;;;;;;;17.00;10.55;;;8.10;99.90;;;;;;2603282;54;20904;31
2023/04/13 01:38:06;;;;;;;14.35;9.75;;;8.10;99.90;;;;;;2782963;31;20026;31
2023/04/13 01:40:43;;;;;;;13.40;8.90;;;8.10;99.90;;;;;;2603323;54;20855;31
2023/04/13 01:43:24;;;;;;;16.02;9.77;;;8.10;99.90;;;;;;2603548;54;20271;31
2023/04/13 01:46:24;;;;;;;16.73;9.68;;;8.10;99.90;;;;;;2603179;54;20022;31
2023/04/13 01:49:12;;;;;;;14.10;9.47;;;8.00;99.90;;;;;;2603163;54;20026;31
2023/04/13 01:51:57;;;;;;;16.58;9.52;;;8.00;99.90;;;;;;2603307;54;20751;31
2023/04/13 01:54:38;;;;;;;12.43;9.07;;;8.10;99.90;;;;;;2603488;54;20026;31
2023/04/13 01:57:13;;;;;;;14.30;9.60;;;8.00;99.90;;;;;;2603319;54;20896;31
2023/04/13 01:59:52;;;;;;;16.40;10.00;;;8.10;99.90;;;;;;2603206;54;20030;31
2023/04/13 02:02:28;;;;;;;17.52;9.43;;;8.10;99.90;;;;;;2603107;54;20026;31
2023/04/13 02:05:03;;;;;;;17.98;11.55;;;8.10;99.90;;;;;;2603263;54;20026;31
2023/04/13 02:07:43;;;;;;;17.08;10.25;;;8.10;99.90;;;;;;2621715;46;20085;31
2023/04/13 02:10:18;;;;;;;19.58;10.20;;;8.10;99.90;;;;;;2622032;46;20010;31
2023/04/13 02:12:55;;;;;;;19.10;10.80;;;8.10;99.90;;;;;;2603368;54;20030;31
2023/04/13 02:15:37;;;;;;;21.20;10.93;;;8.10;99.90;;;;;;2603242;54;20109;31
2023/04/13 02:18:13;;;;;;;17.03;10.23;;;8.10;99.90;;;;;;2621719;46;20026;31
2023/04/13 02:20:48;;;;;;;18.60;11.15;;;8.20;99.90;;;;;;2603155;54;19939;31
2023/04/13 02:23:24;;;;;;;15.55;9.75;;;8.20;99.90;;;;;;2603023;54;20760;31
2023/04/13 02:25:59;;;;;;;;;;;8.20;99.90;;;;;;2602536;54;20069;31
2023/04/13 02:28:34;;;;;;;14.15;9.15;;;8.20;99.90;;;;;;2603036;54;19942;31
2023/04/13 02:31:18;;;;;;;14.77;9.05;;;8.20;99.90;;;;;;2621611;47;20105;31
2023/04/13 02:33:54;;;;;;;14.70;9.52;;;8.20;99.90;;;;;;2603077;54;20129;31
2023/04/13 02:36:31;;;;;;;19.50;10.50;;;8.20;99.90;;;;;;2603053;54;20034;31
2023/04/13 02:39:14;;;;;;;16.70;9.97;;;8.20;99.90;;;;;;2603253;54;20112;31
2023/04/13 02:41:49;;;;;;;14.95;9.93;;;8.20;99.90;;;;;;2603244;54;20033;31
2023/04/13 02:44:29;;;;;;;18.00;10.50;;;8.20;99.90;;;;;;2603260;54;20053;31
2023/04/13 02:47:11;;;;;;;15.95;10.35;;;8.20;99.90;;;;;;2603859;54;20783;31
2023/04/13 02:49:48;;;;;;;16.50;10.30;;;8.20;99.90;;;;;;2622616;46;20985;31
2023/04/13 02:52:36;;;;;;;16.67;9.93;;;8.30;99.90;;;;;;2603842;54;20077;31
2023/04/13 02:55:13;;;;;;;15.98;9.95;;;8.30;99.90;;;;;;2603835;54;20030;31
2023/04/13 02:57:56;;;;;;;15.65;9.85;;;8.30;99.90;;;;;;2603762;54;20026;31
2023/04/13 03:00:34;;;;;;;23.70;11.50;;;8.30;99.90;;;;;;2603745;54;20113;31
2023/04/13 03:03:16;;;;;;;27.25;13.40;;;8.30;99.90;;;;;;2621991;46;20045;31
2023/04/13 03:05:57;;;;;;;29.77;13.60;;;8.30;99.90;;;;;;2603814;54;20026;31
2023/04/13 03:08:45;;;;;;;22.33;12.80;;;8.40;99.90;;;;;;2622579;46;20064;31
2023/04/13 03:11:26;;;;;;;20.70;11.95;;;8.30;99.90;;;;;;2603986;54;19970;31
2023/04/13 03:14:22;;;;;;;20.92;10.93;;;8.30;99.90;;;;;;2603753;54;19934;31
2023/04/13 03:17:10;;;;;;;17.05;11.38;;;8.30;99.90;;;;;;2622548;46;20903;31
2023/04/13 03:19:48;;;;;;;17.85;11.63;;;8.30;99.90;;;;;;2603904;54;20046;31
2023/04/13 03:22:29;;;;;;;18.08;11.13;;;8.30;99.90;;;;;;2603828;54;20761;31
2023/04/13 03:25:10;;;;;;;17.25;11.25;;;8.30;99.90;;;;;;2603978;54;20856;31
2023/04/13 03:27:46;;;;;;;16.88;10.88;;;8.30;99.90;;;;;;2603822;54;20026;31
2023/04/13 03:30:24;;;;;;;15.20;9.70;;;8.30;99.90;;;;;;2603958;54;20026;31
2023/04/13 03:33:04;;;;;;;18.73;12.25;;;8.30;99.90;;;;;;2603921;54;20854;31
2023/04/13 03:35:43;;;;;;;18.08;12.63;;;8.30;99.90;;;;;;2603715;54;20026;31
2023/04/13 03:38:34;;;;;;;19.83;12.73;;;8.20;99.90;;;;;;2603566;54;20768;31
2023/04/13 03:41:10;;;;;;;20.13;14.23;;;8.20;99.90;;;;;;2603874;54;20027;31
2023/04/13 03:43:47;;;;;;;23.40;14.45;;;8.20;99.90;;;;;;2603800;54;20026;31
2023/04/13 03:46:22;;;;;;;22.50;15.30;;;8.20;99.90;;;;;;2603850;54;20026;31
2023/04/13 03:48:57;;;;;;;22.47;16.73;;;8.20;99.90;;;;;;2603501;54;20026;31
2023/04/13 03:51:35;;;;;;;23.70;15.45;;;8.20;99.90;;;;;;2603814;54;20853;31
2023/04/13 03:54:14;;;;;;;;;;;8.10;99.90;;;;;;2603874;54;20027;31
2023/04/13 03:56:49;;;;;;;25.50;16.55;;;8.10;99.90;;;;;;2603318;54;20017;31
2023/04/13 03:59:25;;;;;;;25.87;17.10;;;8.10;99.90;;;;;;2603745;54;20030;31
2023/04/13 04:02:01;;;;;;;26.47;16.73;;;8.10;99.90;;;;;;2603849;54;20028;31
2023/04/13 04:04:39;;;;;;;23.83;17.25;;;8.00;99.90;;;;;;2603636;54;20243;31
2023/04/13 04:07:15;;;;;;;27.43;17.30;;;8.00;99.90;;;;;;2622035;46;20029;31
2023/04/13 04:09:54;;;;;;;25.08;16.58;;;8.00;99.90;;;;;;2602734;54;20035;31
2023/04/13 04:12:34;;;;;;;28.15;18.13;;;8.00;99.90;;;;;;2603663;54;20026;31
2023/04/13 04:15:12;;;;;;;28.83;19.20;;;8.00;99.90;;;;;;2603446;54;20888;31
2023/04/13 04:17:50;;;;;;;31.35;19.33;;;8.00;99.90;;;;;;2603488;54;20097;31
2023/04/13 04:20:25;;;;;;;28.55;19.80;;;8.00;99.90;;;;;;2603573;54;21377;31
2023/04/13 04:23:03;;;;;;;34.38;19.10;;;8.00;99.90;;;;;;2701901;39;21545;31
2023/04/13 04:25:55;;;;;;;27.80;20.50;;;8.00;99.90;;;;;;2603626;54;20610;31
2023/04/13 04:28:30;;;;;;;29.58;20.85;;;8.00;99.90;;;;;;2603457;54;20039;31
2023/04/13 04:31:09;;;;;;;29.70;20.60;;;7.90;99.90;;;;;;2701880;39;20461;31
2023/04/13 04:33:50;;;;;;;29.13;19.00;;;7.90;99.90;;;;;;2621738;46;20845;31
2023/04/13 04:36:27;;;;;;;27.65;19.42;;;7.90;99.90;;;;;;2603787;54;20030;31
2023/04/13 04:39:06;;;;;;;33.60;20.40;;;7.90;99.90;;;;;;2621608;46;20889;31
2023/04/13 04:42:01;;;;;;;29.13;20.10;;;7.90;99.90;;;;;;2603519;54;20152;31
2023/04/13 04:44:38;;;;;;;28.02;19.48;;;7.90;99.90;;;;;;2621986;46;20263;31
2023/04/13 04:47:18;;;;;;;28.10;19.83;;;7.80;99.90;;;;;;2603433;54;20078;31
2023/04/13 04:50:20;;;;;;;28.25;19.42;;;7.90;99.90;;;;;;2603423;54;20029;31
2023/04/13 04:53:02;;;;;;;33.40;22.35;;;7.90;99.90;;;;;;2603638;54;20077;31
2023/04/13 04:55:37;;;;;;;32.95;20.60;;;7.90;99.90;;;;;;2603400;54;20049;31
2023/04/13 04:58:24;;;;;;;31.52;20.58;;;7.90;99.90;;;;;;2603277;54;20883;31
2023/04/13 05:01:02;;;;;;;34.13;23.25;;;7.90;99.90;;;;;;2603409;54;20756;31
2023/04/13 05:03:39;;;;;;;30.88;20.75;;;7.90;99.90;;;;;;2603274;54;20954;31
2023/04/13 05:06:31;;;;;;;30.08;21.75;;;7.90;99.90;;;;;;2603346;54;20023;31
2023/04/13 05:09:08;;;;;;;31.23;21.50;;;7.90;99.90;;;;;;2603555;54;20029;31
2023/04/13 05:11:47;;;;;;;29.83;21.40;;;7.90;99.90;;;;;;2603339;54;20026;31
2023/04/13 05:14:28;;;;;;;46.25;29.23;;;8.00;99.90;;;;;;2602618;54;20897;31
2023/04/13 05:17:07;;;;;;;64.80;37.90;;;8.00;99.90;;;;;;2603330;54;20786;31
2023/04/13 05:19:45;;;;;;;38.70;28.05;;;8.00;99.90;;;;;;2701717;39;21325;31
2023/04/13 05:22:31;;;;;;;40.42;25.17;;;8.00;99.90;;;;;;2603416;54;20596;31
2023/04/13 05:25:14;;;;;;;30.50;20.48;;;8.00;99.90;;;;;;2603598;54;20080;31
2023/04/13 05:27:51;;;;;;;32.80;22.33;;;8.00;99.90;;;;;;2603425;54;20019;31
2023/04/13 05:30:34;;;;;;;30.92;21.92;;;8.10;99.90;;;;;;2701510;39;20465;31
2023/04/13 05:33:12;;;;;;;32.50;20.60;;;8.10;99.90;;;;;;2603308;54;20023;31
2023/04/13 05:35:49;;;;;;;32.88;21.70;;;8.20;99.90;;;;;;2603513;54;19954;31
2023/04/13 05:38:24;;;;;;;;;;;8.20;99.90;;;;;;2702173;39;20493;31
2023/04/13 05:41:02;;;;;;;32.25;22.48;;;8.20;99.90;;;;;;2603264;54;19946;31
2023/04/13 05:43:44;;;;;;;33.47;23.67;;;8.20;99.90;;;;;;2602494;54;20866;31
2023/04/13 05:46:24;;;;;;;33.45;22.85;;;8.20;99.90;;;;;;2603281;54;20037;31
2023/04/13 05:49:00;;;;;;;29.58;22.52;;;8.20;99.90;;;;;;2603305;54;20647;31
2023/04/13 05:51:38;;;;;;;45.83;33.08;;;8.20;99.90;;;;;;2621180;46;20132;31
2023/04/13 05:54:17;;;;;;;36.22;25.10;;;8.20;99.90;;;;;;2603182;54;20037;31
2023/04/13 05:56:55;;;;;;;37.67;26.85;;;8.30;99.90;;;;;;2602400;54;20876;31
2023/04/13 05:59:31;;;;;;;32.97;22.33;;;8.30;99.90;;;;;;2621462;46;20077;31
2023/04/13 06:02:13;;;;;;;30.45;20.95;;;8.30;99.90;;;;;;2621467;46;20721;31
2023/04/13 06:04:52;;;;;;;96.10;63.20;;;8.30;99.90;;;;;;2603138;54;20085;31
2023/04/13 06:07:28;;;;;;;36.10;24.15;;;8.30;99.90;;;;;;2702044;39;21068;31
2023/04/13 06:10:03;;;;;;;30.47;19.77;;;8.30;99.90;;;;;;2603388;54;20031;31
2023/04/13 06:12:41;;;;;;;31.70;20.33;;;8.30;99.90;;;;;;2701582;39;20576;31
2023/04/13 06:15:19;;;;;;;30.70;19.92;;;8.30;99.90;;;;;;2701798;39;20517;31
2023/04/13 06:17:54;;;;;;;31.65;20.50;;;8.20;99.90;;;;;;2603362;54;20888;31
2023/04/13 06:20:36;;;;;;;28.38;19.65;;;8.30;99.90;;;;;;2603131;54;20864;31
2023/04/13 06:23:13;;;;;;;25.65;18.17;;;8.30;99.90;;;;;;2603419;54;20545;31
2023/04/13 06:25:50;;;;;;;33.05;20.77;;;8.40;99.90;;;;;;2603304;54;20023;31
2023/04/13 06:28:36;;;;;;;32.25;20.20;;;8.40;99.90;;;;;;2603166;54;20940;31
2023/04/13 06:31:16;;;;;;;28.90;19.35;;;8.40;99.90;;;;;;2700834;39;20568;31
2023/04/13 06:33:55;;;;;;;33.47;19.67;;;8.40;99.90;;;;;;2621839;47;20707;31
2023/04/13 06:36:40;;;;;;;26.80;17.52;;;8.50;99.90;;;;;;2701868;39;20915;31
2023/04/13 06:39:20;;;;;;;27.10;18.02;;;8.50;99.90;;;;;;2603128;54;20843;31
2023/04/13 06:42:04;;;;;;;28.55;18.80;;;8.50;99.90;;;;;;2621472;47;20034;31
2023/04/13 06:45:01;;;;;;;28.13;18.63;;;8.60;99.90;;;;;;2603092;54;20883;31
2023/04/13 06:47:44;;;;;;;28.65;21.85;;;8.70;99.90;;;;;;2603202;54;21057;31
2023/04/13 06:50:22;;;;;;;31.15;21.92;;;8.60;99.90;;;;;;2602279;54;20026;31
2023/04/13 06:53:01;;;;;;;31.88;22.15;;;8.70;99.90;;;;;;2603108;54;20033;31
2023/04/13 06:55:37;;;;;;;32.25;22.05;;;8.80;99.90;;;;;;2603196;54;20927;31
2023/04/13 06:58:12;;;;;;;28.15;19.05;;;8.80;99.90;;;;;;2602778;54;20096;31
2023/04/13 07:00:50;;;;;;;31.73;20.40;;;8.90;99.90;;;;;;2602873;54;20109;31
2023/04/13 07:03:27;;;;;;;25.98;17.95;;;8.90;99.90;;;;;;2603118;54;19941;31
2023/04/13 07:06:06;;;;;;;28.13;18.50;;;9.00;99.90;;;;;;2602994;54;20898;31
2023/04/13 07:08:49;;;;;;;32.22;20.60;;;9.10;99.90;;;;;;2602946;54;20843;31
2023/04/13 07:11:27;;;;;;;27.98;20.30;;;9.10;99.90;;;;;;2602936;54;20907;31
2023/04/13 07:14:04;;;;;;;31.23;21.23;;;9.10;99.90;;;;;;2611800;47;20615;31
2023/04/13 07:16:41;;;;;;;34.63;21.52;;;9.20;99.90;;;;;;2700718;39;20590;31
2023/04/13 07:19:19;;;;;;;31.45;21.00;;;9.20;99.90;;;;;;2602369;54;20053;31
2023/04/13 07:21:58;;;;;;;32.27;20.63;;;9.30;99.90;;;;;;2602805;54;20022;31
2023/04/13 07:24:38;;;;;;;27.57;20.77;;;9.30;99.90;;;;;;2621160;47;20031;31
2023/04/13 07:27:20;;;;;;;32.55;20.95;;;9.40;99.90;;;;;;2602843;54;20273;31
2023/04/13 07:29:56;;;;;;;28.05;19.02;;;9.40;99.90;;;;;;2621345;47;20042;31
2023/04/13 07:32:37;;;;;;;29.95;20.13;;;9.50;99.90;;;;;;2701145;39;20466;31
2023/04/13 07:35:14;;;;;;;26.95;18.65;;;9.60;99.90;;;;;;2720742;39;20477;31
2023/04/13 07:37:52;;;;;;;31.63;19.05;;;9.60;99.90;;;;;;2603564;54;20034;31
2023/04/13 07:40:34;;;;;;;26.73;17.95;;;9.70;99.90;;;;;;2603698;54;20875;31
2023/04/13 07:43:13;;;;;;;26.65;18.42;;;9.80;99.90;;;;;;2621920;46;19934;31
2023/04/13 07:45:51;;;;;;;31.83;20.05;;;9.80;99.90;;;;;;2603653;54;20932;31
2023/04/13 07:48:28;;;;;;;36.40;22.40;;;9.90;99.90;;;;;;2603470;54;20904;31
2023/04/13 07:51:19;;;;;;;29.67;19.70;;;9.90;99.90;;;;;;2603654;54;21342;31
2023/04/13 07:53:56;;;;;;;32.93;21.37;;;9.90;99.90;;;;;;2702371;39;20580;31
2023/04/13 07:56:38;;;;;;;32.63;21.70;;;9.90;99.90;;;;;;2603527;54;20317;31
2023/04/13 07:59:17;;;;;;;39.00;28.15;;;9.90;99.90;;;;;;2603684;54;20027;31
2023/04/13 08:01:53;;;;;;;35.45;26.05;;;10.00;99.90;;;;;;2603351;54;20038;31
2023/04/13 08:04:31;;;;;;;36.85;26.20;;;10.00;99.90;;;;;;2603525;54;20042;31
2023/04/13 08:07:08;;;;;;;33.45;20.95;;;10.00;99.90;;;;;;2603673;54;20027;31
2023/04/13 08:09:47;;;;;;;33.92;21.75;;;10.00;99.90;;;;;;2603742;54;20022;31
2023/04/13 08:12:26;;;;;;;32.45;20.38;;;10.00;99.90;;;;;;2621871;46;20932;31
2023/04/13 08:15:03;;;;;;;31.90;21.83;;;10.00;99.90;;;;;;2603806;54;20023;31
2023/04/13 08:17:40;;;;;;;28.50;20.48;;;10.10;99.90;;;;;;2603528;54;20873;31
2023/04/13 08:20:17;;;;;;;30.27;21.58;;;10.10;99.90;;;;;;2603532;54;20049;31
2023/04/13 08:22:55;;;;;;;33.50;22.40;;;10.10;99.90;;;;;;2603512;54;20042;31
2023/04/13 08:25:31;;;;;;;31.13;22.35;;;10.10;99.90;;;;;;2603668;54;20865;31
2023/04/13 08:28:10;;;;;;;28.98;21.83;;;10.10;99.90;;;;;;2603665;54;21550;31
2023/04/13 08:30:46;;;;;;;31.70;20.42;;;10.20;99.90;;;;;;2773721;31;20607;31
2023/04/13 08:33:22;;;;;;;29.50;19.98;;;10.20;99.90;;;;;;2622156;46;20774;31
2023/04/13 08:35:57;;;;;;;28.08;19.13;;;10.30;99.90;;;;;;2603382;54;20034;31
2023/04/13 08:38:42;;;;;;;24.75;17.15;;;10.30;99.90;;;;;;2702218;39;20477;31
2023/04/13 08:41:20;;;;;;;22.47;15.97;;;10.40;99.90;;;;;;2603617;54;20034;31
2023/04/13 08:44:05;;;;;;;27.60;15.33;;;10.50;99.90;;;;;;2603458;54;20089;31
2023/04/13 08:46:45;;;;;;;17.60;11.93;;;10.50;99.90;;;;;;2603354;54;20116;31
2023/04/13 08:49:32;;;;;;;18.55;9.93;;;10.60;99.90;;;;;;2603548;54;20332;31
2023/04/13 08:52:21;;;;;;;17.55;9.70;;;10.70;99.90;;;;;;2603492;54;20081;31
2023/04/13 08:55:02;;;;;;;17.00;9.80;;;10.70;99.90;;;;;;2621386;46;20962;31
2023/04/13 08:57:37;;;;;;;14.13;9.90;;;10.70;99.90;;;;;;2603616;54;20022;31
2023/04/13 09:00:20;;;;;;;17.98;9.93;;;10.70;99.90;;;;;;2603120;54;20867;31
2023/04/13 09:03:01;;;;;;;16.10;10.45;;;10.60;99.90;;;;;;2603792;54;20022;31
2023/04/13 09:05:43;;;;;;;16.42;10.07;;;10.70;99.90;;;;;;2603452;54;20030;31
2023/04/13 09:08:20;;;;;;;17.42;11.55;;;10.70;99.90;;;;;;2603595;54;20038;31
2023/04/13 09:11:01;;;;;;;16.52;10.57;;;10.70;99.90;;;;;;2603451;54;20046;31
2023/04/13 09:13:36;;;;;;;17.85;12.60;;;10.70;99.90;;;;;;2621843;46;20856;31
2023/04/13 09:16:16;;;;;;;23.63;16.50;;;10.70;99.90;;;;;;2603603;54;20052;31
2023/04/13 09:18:57;;;;;;;24.60;18.25;;;10.70;99.90;;;;;;2603392;54;20748;31
2023/04/13 09:21:38;;;;;;;21.98;15.82;;;10.80;99.90;;;;;;2602581;54;20046;31
2023/04/13 09:24:14;;;;;;;25.30;13.68;;;10.80;99.90;;;;;;2622090;46;19943;31
2023/04/13 09:26:51;;;;;;;18.33;11.80;;;10.80;99.90;;;;;;2603383;54;20023;31
2023/04/13 09:29:28;;;;;;;18.33;12.17;;;10.80;99.90;;;;;;2702147;39;21010;31
2023/04/13 09:32:09;;;;;;;20.02;11.85;;;10.80;99.90;;;;;;2603184;54;20894;31
2023/04/13 09:34:46;;;;;;;20.42;11.98;;;10.90;99.90;;;;;;2701836;39;20521;31
2023/04/13 09:37:23;;;;;;;16.00;11.50;;;10.90;99.90;;;;;;2603417;54;19934;31
2023/04/13 09:39:59;;;;;;;16.00;11.55;;;10.90;99.90;;;;;;2603286;54;20818;31
2023/04/13 09:42:37;;;;;;;17.00;11.90;;;11.00;99.90;;;;;;2720060;39;21378;31
2023/04/13 09:45:16;;;;;;;15.85;11.63;;;11.00;99.90;;;;;;2603131;54;20353;31
2023/04/13 09:47:59;;;;;;;16.00;12.10;;;11.10;99.90;;;;;;2603191;54;20081;31
2023/04/13 09:50:35;;;;;;;17.80;12.15;;;11.10;99.90;;;;;;2603507;54;20054;31
2023/04/13 09:53:14;;;;;;;14.70;8.50;;;11.10;99.90;;;;;;2603173;54;20838;31
2023/04/13 09:55:59;;;;;;;18.10;11.60;;;11.20;99.90;;;;;;2602108;54;21227;31
2023/04/13 09:58:38;;;;;;;16.83;11.40;;;11.30;99.90;;;;;;2702037;39;21090;31
2023/04/13 10:01:14;;;;;;;18.07;11.57;;;11.40;99.90;;;;;;2602929;54;20030;31
2023/04/13 10:03:53;;;;;;;15.85;11.02;;;11.30;99.90;;;;;;2603122;54;20899;31
2023/04/13 10:06:28;;;;;;;16.70;10.75;;;11.40;99.90;;;;;;2603471;54;20121;31
2023/04/13 10:09:05;;;;;;;16.15;9.90;;;11.40;99.90;;;;;;2603262;54;20031;31
2023/04/13 10:11:41;;;;;;;12.80;9.05;;;11.40;99.90;;;;;;2603148;54;20889;31
2023/04/13 10:14:18;;;;;;;13.82;8.77;;;11.40;99.90;;;;;;2603297;54;20026;31
2023/04/13 10:17:09;;;;;;;14.73;9.80;;;11.40;99.90;;;;;;2621732;46;19962;31
2023/04/13 10:19:50;;;;;;;14.33;10.67;;;11.40;99.90;;;;;;2621766;46;20553;31
2023/04/13 10:22:26;;;;;;;15.23;9.68;;;11.40;99.90;;;;;;2603040;54;20026;31
2023/04/13 10:25:01;;;;;;;14.85;8.40;;;11.40;99.90;;;;;;2603052;54;20910;31
2023/04/13 10:27:38;;;;;;;10.73;8.10;;;11.40;99.90;;;;;;2603171;54;20114;31
2023/04/13 10:30:20;;;;;;;12.13;7.32;;;11.40;99.90;;;;;;2621714;46;20027;31
2023/04/13 10:33:06;;;;;;;15.20;7.97;;;11.40;99.90;;;;;;2602437;54;20924;31
2023/04/13 10:35:57;;;;;;;11.05;6.60;;;11.50;99.90;;;;;;2603178;54;20907;31
2023/04/13 10:38:33;;;;;;;13.65;7.20;;;11.30;99.90;;;;;;2603220;54;20057;31
2023/04/13 10:41:10;;;;;;;12.77;7.32;;;11.30;99.90;;;;;;2602985;54;20814;31
2023/04/13 10:43:46;;;;;;;11.45;7.80;;;11.30;99.90;;;;;;2621712;47;20851;31
2023/04/13 10:46:23;;;;;;;;;;;11.30;99.90;;;;;;2622054;47;20027;31
2023/04/13 10:49:00;;;;;;;5.10;2.95;;;11.30;99.90;;;;;;2603118;54;20845;31
2023/04/13 10:51:45;;;;;;;4.05;1.83;;;11.30;99.90;;;;;;2603033;54;20880;31
2023/04/13 10:54:20;;;;;;;3.05;1.30;;;11.20;99.90;;;;;;2603166;54;20850;31
2023/04/13 10:57:00;;;;;;;3.10;1.85;;;11.20;99.90;;;;;;2602938;54;20916;31
2023/04/13 10:59:42;;;;;;;3.90;1.85;;;11.20;99.90;;;;;;2603242;54;20023;31
2023/04/13 11:02:21;;;;;;;3.97;1.70;;;11.10;99.90;;;;;;2602569;54;20498;31
2023/04/13 11:04:59;;;;;;;6.32;1.45;;;11.10;99.90;;;;;;2621563;47;19934;31
2023/04/13 11:07:40;;;;;;;4.90;0.90;;;11.10;99.90;;;;;;2622083;47;20581;31
2023/04/13 11:10:15;;;;;;;2.13;0.70;;;11.10;99.90;;;;;;2603757;54;20026;31
2023/04/13 11:12:54;;;;;;;4.70;1.02;;;11.10;99.90;;;;;;2603644;54;20584;31
2023/04/13 11:15:32;;;;;;;3.72;1.10;;;11.10;99.90;;;;;;2603696;54;20022;31
2023/04/13 11:18:09;;;;;;;1.87;0.93;;;11.20;99.90;;;;;;2603983;54;20037;31
2023/04/13 11:20:45;;;;;;;5.72;0.93;;;11.20;99.90;;;;;;2702186;39;20381;31
2023/04/13 11:23:23;;;;;;;;;;;11.20;99.90;;;;;;2603884;54;20855;31
2023/04/13 11:26:03;;;;;;;3.42;0.85;;;11.20;99.90;;;;;;2720903;39;20457;31
2023/04/13 11:28:37;;;;;;;3.63;0.80;;;11.20;99.90;;;;;;2720394;39;20569;31
2023/04/13 11:31:14;;;;;;;3.67;1.27;;;11.20;99.90;;;;;;2603780;54;20783;31
2023/04/13 11:33:51;;;;;;;4.57;1.35;;;11.10;99.90;;;;;;2603748;54;20546;31
2023/04/13 11:36:29;;;;;;;3.20;0.90;;;11.10;99.90;;;;;;2792064;31;20528;31
2023/04/13 11:39:09;;;;;;;1.85;0.80;;;11.10;99.90;;;;;;2622069;46;20146;31
2023/04/13 11:41:46;;;;;;;1.90;0.70;;;11.10;99.90;;;;;;2622062;46;20634;31
2023/04/13 11:44:22;;;;;;;9.07;2.00;;;11.10;99.90;;;;;;2603536;54;20026;31
2023/04/13 11:46:58;;;;;;;3.28;1.60;;;11.00;99.90;;;;;;2603102;54;20034;31
2023/04/13 11:49:35;;;;;;;;;;;11.00;99.90;;;;;;2621430;46;20022;31
2023/04/13 11:52:11;;;;;;;5.07;1.38;;;11.00;99.90;;;;;;2603494;54;20768;31
2023/04/13 11:54:53;;;;;;;3.55;1.10;;;10.90;99.90;;;;;;2603615;54;20030;31
2023/04/13 11:57:30;;;;;;;4.13;1.38;;;11.00;99.90;;;;;;2603616;54;20038;31
2023/04/13 12:00:13;;;;;;;4.20;1.30;;;11.00;99.90;;;;;;2612858;46;20026;31
2023/04/13 12:02:49;;;;;;;5.50;1.40;;;11.00;99.90;;;;;;2603651;54;20588;31
2023/04/13 12:05:37;;;;;;;4.93;1.67;;;11.00;99.90;;;;;;2603612;54;20034;31
2023/04/13 12:08:13;;;;;;;4.47;1.53;;;11.00;99.90;;;;;;2702237;39;20486;31
2023/04/13 12:10:56;;;;;;;;;;;10.90;99.90;;;;;;2622127;46;20898;31
2023/04/13 12:13:43;;;;;;;6.53;1.40;;;11.00;99.90;;;;;;2603481;54;19934;31
2023/04/13 12:16:39;;;;;;;5.03;1.45;;;11.00;99.90;;;;;;2603843;54;20026;31
2023/04/13 12:19:23;;;;;;;6.15;1.83;;;11.00;99.90;;;;;;2603335;54;20854;31
2023/04/13 12:22:03;;;;;;;5.68;1.60;;;11.00;99.90;;;;;;2603462;54;20991;31
2023/04/13 12:24:42;;;;;;;5.55;1.77;;;11.00;99.90;;;;;;2603403;54;20834;31
2023/04/13 12:27:25;;;;;;;9.43;2.35;;;11.00;99.90;;;;;;2603618;54;20030;31
2023/04/13 12:29:59;;;;;;;5.78;2.08;;;11.10;99.90;;;;;;2603286;54;20026;31
2023/04/13 12:32:36;;;;;;;8.45;2.20;;;11.00;99.90;;;;;;2603627;54;20023;31
2023/04/13 12:35:13;;;;;;;5.07;1.38;;;11.10;99.90;;;;;;2603588;54;20886;31
2023/04/13 12:37:55;;;;;;;4.45;1.35;;;11.10;99.90;;;;;;2603533;54;20048;31
2023/04/13 12:40:31;;;;;;;7.38;1.10;;;11.10;99.90;;;;;;2603459;54;20125;31
2023/04/13 12:43:10;;;;;;;2.30;1.00;;;11.20;99.90;;;;;;2701314;39;20529;31
2023/04/13 12:45:46;;;;;;;7.00;1.53;;;11.20;99.90;;;;;;2603365;54;20033;31
2023/04/13 12:48:21;;;;;;;;;;;11.20;99.90;;;;;;2602860;54;20041;31
2023/04/13 12:50:59;;;;;;;1.25;0.60;;;11.20;99.90;;;;;;2617077;46;20847;31
2023/04/13 12:53:37;;;;;;;1.75;0.60;;;11.20;99.90;;;;;;2602643;54;20917;31
2023/04/13 12:56:14;;;;;;;2.10;0.50;;;11.20;99.90;;;;;;2603465;54;20052;31
2023/04/13 12:58:52;;;;;;;5.40;0.85;;;11.30;99.90;;;;;;2603422;54;20027;31
2023/04/13 13:01:28;;;;;;;1.40;0.40;;;11.30;99.90;;;;;;2603477;54;20033;31
2023/04/13 13:04:06;;;;;;;;;;;11.30;99.90;;;;;;2603560;54;20905;31
2023/04/13 13:06:42;;;;;;;1.65;0.52;;;11.40;99.90;;;;;;2603710;54;19934;31
2023/04/13 13:09:18;;;;;;;0.70;0.30;;;11.50;99.90;;;;;;2602721;54;20907;31
2023/04/13 13:12:01;;;;;;;1.20;0.50;;;11.50;99.90;;;;;;2720626;39;20560;31
2023/04/13 13:17:16;;;;;;;1.23;0.47;;;11.50;99.90;;;;;;2621953;46;20060;31
2023/04/13 13:19:53;;;;;;;2.72;0.68;;;11.50;99.90;;;;;;2603361;54;20616;31
2023/04/13 13:22:29;;;;;;;1.20;0.30;;;11.50;99.90;;;;;;2603592;54;20077;31
2023/04/13 13:25:05;;;;;;;1.30;0.35;;;11.50;99.90;;;;;;2602660;54;20049;31
2023/04/13 13:27:41;;;;;;;6.25;0.60;;;11.50;99.90;;;;;;2603460;54;20030;31
2023/04/13 13:30:41;;;;;;;1.25;0.40;;;11.50;99.90;;;;;;2603186;54;20811;31
2023/04/13 13:33:20;;;;;;;1.17;0.50;;;11.50;99.90;;;;;;2603273;54;20767;31
2023/04/13 13:35:56;;;;;;;1.87;0.40;;;11.50;99.90;;;;;;2603330;54;20038;31
2023/04/13 13:38:32;;;;;;;1.33;0.40;;;11.50;99.90;;;;;;2603215;54;20093;31
2023/04/13 13:41:13;;;;;;;2.30;0.50;;;11.50;99.90;;;;;;2621826;46;20104;31
2023/04/13 13:43:49;;;;;;;3.35;0.60;;;11.50;99.90;;;;;;2603127;54;20849;31
2023/04/13 13:46:25;;;;;;;2.65;0.50;;;11.50;99.90;;;;;;2603244;54;20906;31
2023/04/13 13:49:06;;;;;;;4.18;0.57;;;11.50;99.90;;;;;;2603352;54;20085;31
2023/04/13 13:52:02;;;;;;;3.72;1.20;;;11.50;99.90;;;;;;2603204;54;20912;31
2023/04/13 13:54:43;;;;;;;1.07;0.50;;;11.50;99.90;;;;;;2621791;46;20027;31